createdAt,value
2022-10-05T00:00:01.010Z,4.65
2022-10-05T00:00:35.748Z,4.32
2022-10-05T00:01:23.026Z,3.85
2022-10-05T00:01:57.740Z,4.28
2022-10-05T00:02:32.650Z,4.25
2022-10-05T00:03:11.379Z,4.30
2022-10-05T00:03:46.082Z,4.55
2022-10-05T00:04:20.087Z,4.45
2022-10-05T00:04:54.371Z,3.70
2022-10-05T00:05:32.253Z,3.92
2022-10-05T00:06:05.104Z,4.03
2022-10-05T00:06:37.236Z,4.93
2022-10-05T00:07:16.332Z,4.00
2022-10-05T00:07:48.871Z,4.43
2022-10-05T00:08:28.126Z,4.00
2022-10-05T00:09:01.395Z,3.75
2022-10-05T00:09:34.417Z,4.57
2022-10-05T00:10:16.767Z,4.40
2022-10-05T00:10:50.069Z,4.30
2022-10-05T00:11:22.191Z,3.85
2022-10-05T00:11:56.959Z,3.97
2022-10-05T00:12:30.003Z,4.20
2022-10-05T00:13:02.207Z,4.50
2022-10-05T00:13:37.185Z,4.13
2022-10-05T00:14:18.709Z,3.47
2022-10-05T00:14:55.873Z,5.00
2022-10-05T00:15:28.160Z,3.90
2022-10-05T00:16:09.436Z,4.97
2022-10-05T00:16:44.671Z,4.13
2022-10-05T00:17:20.341Z,4.32
2022-10-05T00:17:52.467Z,4.25
2022-10-05T00:18:27.163Z,4.05
2022-10-05T00:19:00.119Z,4.43
2022-10-05T00:19:35.185Z,3.85
2022-10-05T00:20:19.338Z,4.70
2022-10-05T00:20:51.495Z,4.68
2022-10-05T00:21:26.224Z,3.97
2022-10-05T00:22:02.989Z,5.57
2022-10-05T00:22:35.218Z,4.13
2022-10-05T00:23:14.106Z,4.20
2022-10-05T00:23:51.820Z,4.50
2022-10-05T00:24:24.021Z,4.55
2022-10-05T00:24:59.270Z,3.95
2022-10-05T00:25:34.038Z,4.55
2022-10-05T00:26:14.209Z,4.50
2022-10-05T00:26:46.840Z,4.57
2022-10-05T00:27:23.986Z,3.80
2022-10-05T00:27:57.958Z,3.85
2022-10-05T00:28:31.018Z,4.65
2022-10-05T00:29:17.413Z,4.63
2022-10-05T00:29:51.679Z,4.38
2022-10-05T00:30:28.636Z,4.38
2022-10-05T00:31:01.202Z,3.90
2022-10-05T00:31:36.285Z,3.80
2022-10-05T00:32:12.701Z,3.92
2022-10-05T00:32:45.726Z,4.15
2022-10-05T00:33:17.789Z,3.70
2022-10-05T00:33:52.612Z,4.20
2022-10-05T00:34:24.866Z,4.40
2022-10-05T00:34:57.897Z,4.25
2022-10-05T00:35:32.621Z,3.88
2022-10-05T00:36:07.271Z,3.70
2022-10-05T00:36:40.292Z,3.80
2022-10-05T00:37:17.398Z,4.78
2022-10-05T00:37:54.176Z,5.32
2022-10-05T00:38:28.671Z,3.72
2022-10-05T00:39:06.314Z,3.80
2022-10-05T00:39:40.729Z,4.28
2022-10-05T00:40:29.547Z,3.90
2022-10-05T00:41:09.815Z,3.30
2022-10-05T00:41:55.637Z,4.68
2022-10-05T00:42:41.633Z,3.20
2022-10-05T00:43:34.311Z,3.78
2022-10-05T00:44:23.930Z,4.18
2022-10-05T00:45:03.004Z,4.00
2022-10-05T00:45:42.118Z,3.55
2022-10-05T00:46:20.870Z,3.55
2022-10-05T00:46:57.747Z,3.63
2022-10-05T00:47:42.758Z,3.63
2022-10-05T00:48:25.497Z,3.33
2022-10-05T00:49:09.625Z,3.92
2022-10-05T00:50:04.247Z,3.78
2022-10-05T00:51:03.561Z,3.92
2022-10-05T00:51:37.696Z,4.38
2022-10-05T00:52:23.661Z,3.40
2022-10-05T00:53:05.151Z,3.35
2022-10-05T00:53:46.541Z,3.80
2022-10-05T00:54:30.051Z,3.60
2022-10-05T00:55:10.496Z,3.60
2022-10-05T00:56:44.276Z,4.13
2022-10-05T00:57:33.975Z,4.03
2022-10-05T00:58:17.113Z,3.53
2022-10-05T00:58:58.492Z,3.60
2022-10-05T00:59:49.273Z,3.92
2022-10-05T01:00:25.462Z,3.40
2022-10-05T01:01:12.144Z,3.42
2022-10-05T01:01:55.292Z,4.20
2022-10-05T01:02:38.148Z,3.58
2022-10-05T01:03:18.762Z,3.60
2022-10-05T01:04:02.839Z,2.80
2022-10-05T01:04:46.166Z,3.60
2022-10-05T01:05:35.852Z,4.30
2022-10-05T01:06:16.745Z,3.95
2022-10-05T01:07:04.900Z,5.32
2022-10-05T01:07:44.825Z,3.53
2022-10-05T01:08:31.203Z,2.97
2022-10-05T01:09:15.508Z,4.35
2022-10-05T01:09:56.600Z,3.08
2022-10-05T01:10:35.308Z,3.80
2022-10-05T01:11:17.525Z,4.40
2022-10-05T01:11:56.297Z,3.60
2022-10-05T01:12:37.603Z,3.33
2022-10-05T01:13:24.147Z,3.25
2022-10-05T01:14:04.104Z,3.83
2022-10-05T01:14:41.459Z,4.10
2022-10-05T01:15:23.802Z,3.78
2022-10-05T01:16:04.342Z,3.28
2022-10-05T01:16:49.506Z,3.50
2022-10-05T01:17:28.165Z,3.17
2022-10-05T01:18:13.056Z,3.50
2022-10-05T01:18:54.704Z,3.22
2022-10-05T01:19:51.577Z,4.28
2022-10-05T01:20:34.594Z,3.30
2022-10-05T01:21:14.714Z,3.28
2022-10-05T01:21:53.611Z,2.95
2022-10-05T01:22:43.989Z,4.00
2022-10-05T01:23:49.716Z,3.17
2022-10-05T01:24:50.826Z,3.13
2022-10-05T01:25:35.073Z,4.18
2022-10-05T01:26:35.992Z,3.25
2022-10-05T01:27:21.610Z,3.50
2022-10-05T01:28:03.148Z,3.30
2022-10-05T01:28:42.344Z,3.50
2022-10-05T01:29:21.597Z,3.22
2022-10-05T01:30:02.889Z,2.60
2022-10-05T01:30:44.818Z,2.72
2022-10-05T01:31:26.158Z,3.65
2022-10-05T01:32:08.208Z,2.80
2022-10-05T01:32:51.249Z,3.22
2022-10-05T01:33:29.235Z,3.10
2022-10-05T01:34:11.449Z,2.97
2022-10-05T01:34:52.602Z,3.90
2022-10-05T01:35:43.785Z,3.88
2022-10-05T01:36:25.030Z,3.45
2022-10-05T01:37:04.562Z,2.72
2022-10-05T01:37:48.918Z,4.10
2022-10-05T01:38:31.495Z,3.53
2022-10-05T01:39:14.173Z,3.13
2022-10-05T01:39:55.566Z,3.38
2022-10-05T01:40:33.844Z,2.85
2022-10-05T01:41:20.815Z,3.17
2022-10-05T01:42:02.183Z,3.58
2022-10-05T01:42:46.571Z,4.07
2022-10-05T01:43:33.028Z,3.22
2022-10-05T01:44:13.388Z,2.67
2022-10-05T01:45:36.738Z,3.42
2022-10-05T01:46:20.826Z,3.13
2022-10-05T01:47:03.257Z,3.13
2022-10-05T01:47:46.584Z,2.85
2022-10-05T01:48:25.455Z,3.20
2022-10-05T01:49:17.907Z,3.22
2022-10-05T01:50:00.334Z,2.90
2022-10-05T01:50:43.900Z,3.00
2022-10-05T01:51:22.590Z,3.42
2022-10-05T01:52:11.048Z,3.42
2022-10-05T01:52:55.066Z,3.42
2022-10-05T01:53:37.631Z,3.72
2022-10-05T01:54:25.393Z,3.83
2022-10-05T01:55:12.760Z,3.10
2022-10-05T01:55:55.406Z,2.95
2022-10-05T01:56:34.995Z,3.08
2022-10-05T01:57:20.911Z,4.50
2022-10-05T01:58:07.847Z,2.97
2022-10-05T01:58:51.236Z,4.07
2022-10-05T01:59:34.705Z,3.30
2022-10-05T02:00:13.016Z,3.53
2022-10-05T02:00:58.051Z,3.35
2022-10-05T02:01:36.576Z,3.30
2022-10-05T02:02:15.690Z,3.83
2022-10-05T02:02:51.177Z,3.88
2022-10-05T02:03:27.606Z,7.20
2022-10-05T02:04:08.772Z,2.88
2022-10-05T02:05:03.241Z,3.22
2022-10-05T02:05:42.250Z,2.90
2022-10-05T02:06:21.532Z,3.58
2022-10-05T02:06:54.918Z,3.63
2022-10-05T02:07:37.439Z,3.30
2022-10-05T02:08:14.638Z,4.25
2022-10-05T02:08:50.740Z,4.43
2022-10-05T02:09:29.834Z,4.47
2022-10-05T02:10:06.659Z,3.10
2022-10-05T02:10:45.097Z,3.42
2022-10-05T02:11:19.862Z,3.38
2022-10-05T02:11:59.770Z,3.35
2022-10-05T02:12:37.963Z,2.88
2022-10-05T02:13:19.562Z,3.40
2022-10-05T02:13:59.202Z,3.00
2022-10-05T02:14:38.950Z,2.88
2022-10-05T02:15:16.029Z,3.63
2022-10-05T02:15:54.782Z,3.20
2022-10-05T02:16:35.475Z,2.50
2022-10-05T02:17:14.077Z,3.08
2022-10-05T02:17:50.595Z,3.28
2022-10-05T02:18:31.087Z,3.67
2022-10-05T02:19:14.686Z,3.03
2022-10-05T02:19:55.367Z,4.45
2022-10-05T02:20:32.722Z,3.40
2022-10-05T02:21:05.845Z,3.35
2022-10-05T02:21:41.191Z,3.38
2022-10-05T02:22:20.290Z,4.07
2022-10-05T02:22:55.290Z,3.33
2022-10-05T02:23:36.050Z,3.53
2022-10-05T02:24:13.393Z,3.08
2022-10-05T02:24:52.283Z,3.47
2022-10-05T02:25:33.386Z,3.05
2022-10-05T02:26:09.050Z,2.92
2022-10-05T02:26:44.830Z,3.65
2022-10-05T02:27:23.483Z,4.20
2022-10-05T02:28:03.012Z,3.22
2022-10-05T02:28:41.720Z,3.60
2022-10-05T02:29:20.406Z,2.78
2022-10-05T02:29:58.382Z,3.22
2022-10-05T02:30:34.530Z,4.00
2022-10-05T02:31:11.268Z,3.03
2022-10-05T02:31:50.631Z,3.30
2022-10-05T02:32:25.739Z,2.97
2022-10-05T02:33:02.821Z,3.20
2022-10-05T02:33:38.364Z,3.58
2022-10-05T02:34:27.734Z,3.90
2022-10-05T02:35:17.140Z,3.10
2022-10-05T02:35:50.804Z,3.40
2022-10-05T02:36:31.271Z,3.65
2022-10-05T02:37:54.463Z,3.20
2022-10-05T02:38:38.593Z,3.50
2022-10-05T02:39:18.996Z,3.10
2022-10-05T02:40:05.263Z,3.25
2022-10-05T02:40:50.692Z,4.32
2022-10-05T02:41:36.032Z,3.38
2022-10-05T02:42:18.688Z,3.42
2022-10-05T02:43:00.757Z,3.95
2022-10-05T02:43:46.929Z,2.95
2022-10-05T02:44:33.502Z,3.72
2022-10-05T02:45:18.353Z,2.40
2022-10-05T02:45:58.008Z,4.28
2022-10-05T02:46:41.176Z,3.53
2022-10-05T02:47:22.561Z,3.78
2022-10-05T02:48:06.917Z,3.67
2022-10-05T02:48:48.797Z,3.75
2022-10-05T02:49:33.840Z,3.33
2022-10-05T02:50:16.360Z,4.00
2022-10-05T02:50:56.191Z,3.90
2022-10-05T02:51:39.767Z,3.15
2022-10-05T02:52:17.126Z,7.70
2022-10-05T02:52:59.584Z,3.67
2022-10-05T02:53:40.648Z,3.55
2022-10-05T02:54:24.450Z,3.53
2022-10-05T02:55:05.475Z,2.45
2022-10-05T02:55:46.580Z,3.78
2022-10-05T02:56:26.500Z,3.30
2022-10-05T02:57:07.578Z,3.92
2022-10-05T02:57:45.997Z,4.18
2022-10-05T02:58:23.662Z,3.72
2022-10-05T02:59:07.224Z,3.22
2022-10-05T02:59:47.131Z,3.80
2022-10-05T03:00:22.078Z,3.78
2022-10-05T03:01:03.045Z,2.70
2022-10-05T03:01:44.078Z,3.65
2022-10-05T03:02:21.332Z,3.70
2022-10-05T03:03:05.015Z,3.40
2022-10-05T03:03:42.247Z,3.22
2022-10-05T03:04:25.574Z,3.20
2022-10-05T03:05:11.732Z,3.60
2022-10-05T03:05:48.687Z,3.85
2022-10-05T03:06:27.559Z,3.53
2022-10-05T03:07:14.322Z,3.47
2022-10-05T03:07:55.895Z,3.50
2022-10-05T03:08:40.199Z,3.60
2022-10-05T03:09:15.558Z,4.95
2022-10-05T03:10:00.881Z,4.70
2022-10-05T03:10:41.927Z,3.25
2022-10-05T03:11:24.400Z,4.35
2022-10-05T03:12:12.463Z,3.75
2022-10-05T03:12:52.943Z,3.92
2022-10-05T03:13:42.314Z,7.60
2022-10-05T03:14:23.227Z,4.70
2022-10-05T03:15:04.134Z,3.08
2022-10-05T03:15:52.405Z,4.80
2022-10-05T03:16:38.508Z,3.90
2022-10-05T03:17:19.247Z,3.95
2022-10-05T03:18:04.355Z,4.32
2022-10-05T03:18:49.370Z,5.10
2022-10-05T03:19:33.436Z,3.35
2022-10-05T03:20:25.422Z,2.90
2022-10-05T03:21:11.105Z,4.60
2022-10-05T03:21:53.687Z,4.38
2022-10-05T03:22:41.433Z,5.75
2022-10-05T03:23:22.287Z,5.95
2022-10-05T03:24:15.216Z,3.85
2022-10-05T03:25:17.517Z,5.35
2022-10-05T03:26:10.412Z,4.70
2022-10-05T03:26:53.347Z,5.10
2022-10-05T03:27:39.362Z,4.03
2022-10-05T03:28:19.259Z,3.67
2022-10-05T03:29:03.441Z,4.10
2022-10-05T03:29:43.673Z,3.95
2022-10-05T03:30:21.931Z,3.45
2022-10-05T03:31:05.650Z,4.93
2022-10-05T03:31:49.767Z,5.93
2022-10-05T03:32:30.384Z,6.00
2022-10-05T03:33:11.629Z,4.78
2022-10-05T03:33:50.884Z,5.68
2022-10-05T03:34:30.251Z,4.20
2022-10-05T03:35:07.923Z,3.97
2022-10-05T03:35:53.237Z,4.28
2022-10-05T03:36:32.636Z,5.10
2022-10-05T03:37:14.726Z,7.20
2022-10-05T03:37:53.620Z,5.60
2022-10-05T03:38:37.836Z,5.03
2022-10-05T03:39:16.167Z,4.55
2022-10-05T03:39:57.563Z,3.78
2022-10-05T03:40:38.815Z,4.50
2022-10-05T03:41:24.266Z,5.28
2022-10-05T03:42:04.176Z,4.57
2022-10-05T03:42:52.267Z,5.07
2022-10-05T03:43:52.513Z,5.55
2022-10-05T03:44:36.895Z,4.95
2022-10-05T03:45:26.590Z,4.75
2022-10-05T03:46:09.337Z,5.25
2022-10-05T03:46:56.729Z,4.00
2022-10-05T03:47:36.978Z,3.28
2022-10-05T03:48:12.018Z,3.63
2022-10-05T03:48:55.310Z,4.60
2022-10-05T03:49:36.943Z,4.28
2022-10-05T03:50:33.586Z,4.47
2022-10-05T03:51:13.333Z,3.60
2022-10-05T03:51:49.213Z,6.63
2022-10-05T03:52:29.431Z,4.18
2022-10-05T03:53:06.049Z,3.92
2022-10-05T03:53:44.155Z,4.03
2022-10-05T03:54:25.905Z,3.67
2022-10-05T03:55:03.758Z,3.75
2022-10-05T03:55:41.154Z,3.22
2022-10-05T03:56:20.426Z,3.75
2022-10-05T03:56:55.828Z,4.03
2022-10-05T03:57:36.315Z,3.72
2022-10-05T03:58:16.187Z,4.65
2022-10-05T03:59:00.994Z,5.20
2022-10-05T03:59:40.577Z,4.05
2022-10-05T04:00:16.562Z,6.28
2022-10-05T04:01:10.303Z,4.40
2022-10-05T04:01:48.114Z,4.20
2022-10-05T04:02:25.264Z,4.53
2022-10-05T04:03:05.639Z,4.15
2022-10-05T04:03:44.273Z,4.30
2022-10-05T04:04:21.395Z,3.92
2022-10-05T04:05:01.931Z,4.18
2022-10-05T04:05:39.618Z,4.72
2022-10-05T04:06:18.071Z,4.80
2022-10-05T04:06:55.874Z,5.65
2022-10-05T04:07:42.853Z,5.28
2022-10-05T04:08:27.824Z,4.80
2022-10-05T04:09:04.611Z,4.03
2022-10-05T04:09:41.260Z,4.18
2022-10-05T04:10:21.940Z,6.00
2022-10-05T04:10:57.341Z,4.75
2022-10-05T04:11:35.646Z,4.10
2022-10-05T04:12:19.089Z,4.65
2022-10-05T04:12:58.653Z,5.18
2022-10-05T04:13:38.401Z,5.22
2022-10-05T04:14:15.493Z,4.32
2022-10-05T04:14:52.157Z,4.70
2022-10-05T04:15:33.764Z,4.55
2022-10-05T04:16:14.406Z,5.43
2022-10-05T04:16:52.706Z,5.90
2022-10-05T04:17:35.729Z,4.15
2022-10-05T04:18:21.051Z,4.50
2022-10-05T04:19:04.092Z,5.00
2022-10-05T04:19:44.409Z,5.32
2022-10-05T04:20:21.320Z,7.15
2022-10-05T04:21:01.727Z,7.30
2022-10-05T04:21:43.948Z,6.03
2022-10-05T04:22:21.133Z,4.95
2022-10-05T04:23:03.297Z,6.35
2022-10-05T04:23:48.361Z,6.63
2022-10-05T04:24:31.665Z,5.72
2022-10-05T04:25:14.807Z,6.03
2022-10-05T04:25:51.685Z,4.82
2022-10-05T04:26:34.806Z,4.18
2022-10-05T04:27:11.501Z,4.28
2022-10-05T04:27:47.555Z,7.20
2022-10-05T04:28:32.373Z,5.30
2022-10-05T04:29:14.391Z,4.45
2022-10-05T04:29:56.923Z,5.10
2022-10-05T04:30:33.219Z,4.32
2022-10-05T04:31:07.337Z,5.30
2022-10-05T04:31:58.596Z,5.05
2022-10-05T04:32:37.642Z,4.82
2022-10-05T04:33:51.956Z,5.55
2022-10-05T04:34:42.908Z,4.88
2022-10-05T04:35:40.968Z,5.47
2022-10-05T04:36:22.452Z,5.47
2022-10-05T04:36:59.430Z,5.20
2022-10-05T04:37:46.649Z,4.75
2022-10-05T04:38:35.111Z,5.70
2022-10-05T04:39:21.715Z,4.82
2022-10-05T04:40:08.926Z,5.10
2022-10-05T04:40:55.527Z,4.80
2022-10-05T04:41:44.899Z,4.10
2022-10-05T04:42:31.561Z,4.97
2022-10-05T04:43:13.585Z,3.88
2022-10-05T04:44:00.127Z,5.03
2022-10-05T04:44:51.059Z,4.05
2022-10-05T04:45:32.965Z,4.57
2022-10-05T04:46:17.555Z,5.15
2022-10-05T04:47:15.189Z,5.72
2022-10-05T04:48:16.437Z,6.43
2022-10-05T04:49:16.885Z,5.65
2022-10-05T04:50:07.185Z,5.43
2022-10-05T04:50:55.553Z,6.60
2022-10-05T04:51:37.405Z,6.70
2022-10-05T04:52:23.447Z,4.50
2022-10-05T04:53:05.301Z,5.40
2022-10-05T04:53:46.405Z,6.13
2022-10-05T04:54:31.615Z,5.32
2022-10-05T04:55:15.702Z,6.10
2022-10-05T04:55:57.908Z,7.32
2022-10-05T04:56:37.708Z,6.57
2022-10-05T04:57:14.241Z,6.05
2022-10-05T04:58:00.364Z,5.43
2022-10-05T04:58:47.118Z,5.50
2022-10-05T04:59:42.132Z,5.35
2022-10-05T05:00:22.800Z,7.00
2022-10-05T05:01:09.796Z,6.68
2022-10-05T05:01:56.460Z,4.22
2022-10-05T05:02:43.647Z,6.03
2022-10-05T05:03:40.322Z,3.95
2022-10-05T05:04:36.585Z,4.88
2022-10-05T05:05:30.227Z,4.90
2022-10-05T05:06:17.267Z,4.43
2022-10-05T05:07:10.568Z,5.95
2022-10-05T05:07:49.770Z,5.53
2022-10-05T05:08:37.875Z,5.22
2022-10-05T05:09:47.023Z,5.13
2022-10-05T05:10:39.846Z,9.05
2022-10-05T05:11:29.255Z,5.47
2022-10-05T05:12:12.113Z,4.15
2022-10-05T05:12:57.223Z,6.72
2022-10-05T05:14:04.978Z,5.00
2022-10-05T05:14:56.055Z,4.93
2022-10-05T05:15:41.815Z,6.78
2022-10-05T05:16:26.277Z,6.05
2022-10-05T05:17:14.978Z,5.47
2022-10-05T05:18:06.809Z,5.82
2022-10-05T05:18:53.510Z,5.78
2022-10-05T05:19:40.459Z,10.10
2022-10-05T05:20:24.198Z,8.88
2022-10-05T05:21:05.754Z,9.52
2022-10-05T05:21:49.394Z,7.97
2022-10-05T05:22:31.779Z,8.15
2022-10-05T05:23:10.426Z,10.20
2022-10-05T05:23:53.304Z,7.95
2022-10-05T05:24:37.239Z,8.88
2022-10-05T05:25:34.563Z,5.97
2022-10-05T05:26:14.895Z,8.52
2022-10-05T05:27:01.337Z,6.45
2022-10-05T05:27:44.807Z,5.75
2022-10-05T05:28:29.890Z,7.03
2022-10-05T05:29:14.891Z,6.55
2022-10-05T05:29:58.938Z,5.90
2022-10-05T05:30:41.036Z,8.13
2022-10-05T05:31:27.025Z,8.13
2022-10-05T05:32:08.794Z,8.52
2022-10-05T05:32:50.326Z,7.75
2022-10-05T05:33:37.822Z,6.50
2022-10-05T05:34:26.207Z,5.93
2022-10-05T05:35:17.411Z,7.90
2022-10-05T05:36:23.430Z,7.57
2022-10-05T05:37:11.242Z,6.90
2022-10-05T05:37:53.591Z,8.18
2022-10-05T05:38:33.143Z,8.40
2022-10-05T05:39:25.850Z,7.50
2022-10-05T05:40:07.920Z,5.97
2022-10-05T05:40:48.106Z,5.90
2022-10-05T05:41:29.835Z,7.18
2022-10-05T05:42:17.793Z,6.82
2022-10-05T05:43:00.736Z,7.15
2022-10-05T05:43:42.201Z,6.07
2022-10-05T05:44:26.542Z,5.72
2022-10-05T05:45:07.585Z,9.27
2022-10-05T05:45:44.275Z,8.38
2022-10-05T05:46:51.097Z,8.93
2022-10-05T05:47:24.564Z,6.75
2022-10-05T05:48:02.973Z,6.97
2022-10-05T05:48:40.887Z,6.55
2022-10-05T05:49:20.152Z,7.35
2022-10-05T05:50:10.267Z,8.13
2022-10-05T05:50:55.295Z,5.85
2022-10-05T05:51:37.405Z,6.15
2022-10-05T05:52:18.445Z,6.28
2022-10-05T05:52:55.815Z,5.82
2022-10-05T05:53:35.378Z,5.60
2022-10-05T05:54:22.956Z,6.75
2022-10-05T05:55:02.875Z,5.15
2022-10-05T05:56:16.070Z,6.60
2022-10-05T05:56:53.433Z,3.88
2022-10-05T05:57:30.027Z,5.28
2022-10-05T05:58:12.782Z,6.15
2022-10-05T05:58:51.060Z,6.57
2022-10-05T05:59:30.630Z,5.28
2022-10-05T06:00:07.096Z,4.60
2022-10-05T06:01:02.603Z,5.82
2022-10-05T06:01:44.343Z,6.07
2022-10-05T06:02:22.007Z,5.93
2022-10-05T06:03:03.227Z,4.57
2022-10-05T06:03:43.441Z,4.50
2022-10-05T06:04:25.378Z,6.07
2022-10-05T06:05:03.407Z,6.30
2022-10-05T06:05:40.793Z,6.18
2022-10-05T06:06:19.078Z,6.15
2022-10-05T06:06:57.346Z,6.68
2022-10-05T06:07:31.516Z,5.82
2022-10-05T06:08:16.870Z,6.05
2022-10-05T06:08:53.827Z,7.65
2022-10-05T06:09:48.890Z,7.05
2022-10-05T06:10:47.498Z,5.28
2022-10-05T06:11:26.987Z,4.25
2022-10-05T06:12:05.047Z,6.93
2022-10-05T06:12:44.842Z,6.53
2022-10-05T06:13:22.535Z,4.82
2022-10-05T06:13:58.111Z,3.17
2022-10-05T06:14:38.091Z,4.97
2022-10-05T06:15:23.767Z,6.05
2022-10-05T06:15:59.973Z,4.65
2022-10-05T06:16:40.875Z,5.57
2022-10-05T06:17:18.583Z,4.72
2022-10-05T06:17:58.914Z,4.82
2022-10-05T06:18:33.167Z,4.40
2022-10-05T06:19:16.122Z,4.70
2022-10-05T06:19:53.373Z,5.32
2022-10-05T06:20:31.199Z,4.63
2022-10-05T06:21:14.400Z,4.65
2022-10-05T06:21:51.616Z,3.47
2022-10-05T06:22:30.368Z,4.70
2022-10-05T06:23:12.962Z,5.88
2022-10-05T06:23:52.009Z,4.82
2022-10-05T06:24:32.681Z,5.25
2022-10-05T06:25:17.067Z,6.63
2022-10-05T06:26:11.105Z,4.85
2022-10-05T06:27:19.481Z,5.55
2022-10-05T06:28:12.268Z,4.43
2022-10-05T06:29:00.922Z,5.75
2022-10-05T06:29:51.116Z,6.57
2022-10-05T06:30:24.118Z,3.80
2022-10-05T06:31:06.942Z,5.45
2022-10-05T06:31:58.734Z,5.43
2022-10-05T06:32:37.974Z,5.45
2022-10-05T06:33:23.153Z,4.47
2022-10-05T06:34:05.902Z,4.80
2022-10-05T06:34:56.588Z,5.47
2022-10-05T06:35:41.461Z,5.30
2022-10-05T06:36:27.292Z,4.30
2022-10-05T06:37:02.588Z,5.82
2022-10-05T06:38:00.609Z,5.43
2022-10-05T06:38:59.913Z,5.55
2022-10-05T06:40:03.311Z,4.63
2022-10-05T06:40:53.231Z,5.78
2022-10-05T06:41:42.178Z,4.32
2022-10-05T06:42:34.359Z,8.23
2022-10-05T06:43:49.365Z,6.60
2022-10-05T06:44:48.003Z,5.13
2022-10-05T06:45:54.821Z,6.97
2022-10-05T06:46:40.481Z,5.05
2022-10-05T06:47:52.706Z,6.47
2022-10-05T06:49:11.822Z,6.25
2022-10-05T06:50:04.318Z,4.28
2022-10-05T06:50:50.558Z,6.82
2022-10-05T06:51:38.884Z,4.75
2022-10-05T06:52:25.911Z,4.72
2022-10-05T06:53:50.828Z,4.60
2022-10-05T06:54:48.557Z,4.93
2022-10-05T06:55:30.298Z,6.30
2022-10-05T06:56:08.365Z,5.90
2022-10-05T06:56:48.652Z,6.60
2022-10-05T06:57:38.376Z,4.72
2022-10-05T06:58:33.408Z,4.15
2022-10-05T06:59:10.303Z,5.22
2022-10-05T06:59:52.819Z,4.13
2022-10-05T07:00:28.248Z,4.03
2022-10-05T07:01:10.813Z,4.50
2022-10-05T07:01:54.042Z,6.22
2022-10-05T07:02:33.101Z,4.43
2022-10-05T07:04:06.280Z,4.82
2022-10-05T07:04:55.738Z,5.78
2022-10-05T07:05:53.407Z,5.93
2022-10-05T07:06:37.724Z,4.78
2022-10-05T07:07:19.788Z,5.40
2022-10-05T07:07:56.458Z,4.05
2022-10-05T07:08:41.655Z,2.95
2022-10-05T07:09:28.522Z,4.72
2022-10-05T07:10:19.779Z,5.57
2022-10-05T07:11:04.829Z,5.10
2022-10-05T07:12:04.554Z,5.32
2022-10-05T07:12:52.613Z,4.40
2022-10-05T07:13:43.121Z,3.78
2022-10-05T07:14:32.068Z,5.13
2022-10-05T07:15:24.127Z,5.38
2022-10-05T07:16:05.143Z,5.05
2022-10-05T07:16:49.653Z,3.42
2022-10-05T07:17:37.389Z,4.97
2022-10-05T07:18:32.187Z,4.00
2022-10-05T07:19:21.751Z,4.03
2022-10-05T07:20:02.198Z,4.40
2022-10-05T07:20:49.351Z,6.60
2022-10-05T07:21:35.858Z,3.28
2022-10-05T07:22:33.417Z,4.00
2022-10-05T07:23:22.995Z,4.97
2022-10-05T07:24:07.229Z,5.22
2022-10-05T07:24:43.050Z,4.65
2022-10-05T07:25:20.553Z,3.92
2022-10-05T07:26:06.726Z,3.58
2022-10-05T07:26:44.035Z,5.38
2022-10-05T07:27:22.420Z,3.17
2022-10-05T07:28:00.890Z,4.13
2022-10-05T07:28:44.133Z,3.40
2022-10-05T07:29:23.818Z,3.75
2022-10-05T07:30:04.971Z,2.47
2022-10-05T07:30:47.649Z,6.10
2022-10-05T07:31:32.517Z,3.75
2022-10-05T07:32:14.642Z,4.35
2022-10-05T07:33:00.195Z,3.83
2022-10-05T07:33:40.281Z,6.15
2022-10-05T07:34:18.880Z,4.57
2022-10-05T07:35:01.652Z,4.07
2022-10-05T07:36:00.801Z,3.15
2022-10-05T07:36:58.965Z,4.25
2022-10-05T07:37:57.959Z,4.03
2022-10-05T07:38:43.565Z,4.45
2022-10-05T07:39:42.092Z,3.05
2022-10-05T07:40:24.700Z,4.38
2022-10-05T07:41:06.184Z,3.72
2022-10-05T07:41:44.177Z,3.78
2022-10-05T07:42:25.096Z,3.45
2022-10-05T07:43:16.703Z,5.20
2022-10-05T07:44:02.376Z,3.75
2022-10-05T07:44:45.566Z,3.33
2022-10-05T07:45:27.979Z,3.92
2022-10-05T07:46:12.701Z,3.40
2022-10-05T07:46:53.602Z,4.25
2022-10-05T07:47:35.698Z,4.50
2022-10-05T07:48:18.480Z,3.60
2022-10-05T07:49:03.412Z,3.15
2022-10-05T07:49:48.568Z,4.60
2022-10-05T07:50:26.786Z,4.50
2022-10-05T07:51:09.056Z,4.38
2022-10-05T07:51:48.477Z,4.57
2022-10-05T07:52:32.378Z,3.85
2022-10-05T07:53:15.732Z,5.55
2022-10-05T07:53:55.813Z,7.43
2022-10-05T07:54:38.050Z,3.60
2022-10-05T07:55:21.872Z,3.90
2022-10-05T07:56:00.378Z,3.88
2022-10-05T07:56:43.521Z,4.68
2022-10-05T07:57:24.538Z,4.03
2022-10-05T07:58:08.815Z,4.60
2022-10-05T07:58:44.433Z,4.43
2022-10-05T07:59:28.335Z,5.07
2022-10-05T08:00:04.479Z,4.45
2022-10-05T08:01:06.548Z,3.30
2022-10-05T08:01:44.762Z,6.15
2022-10-05T08:02:27.359Z,3.60
2022-10-05T08:03:08.038Z,5.28
2022-10-05T08:03:52.383Z,4.07
2022-10-05T08:04:28.525Z,3.88
2022-10-05T08:05:07.315Z,4.82
2022-10-05T08:05:42.567Z,3.35
2022-10-05T08:06:29.248Z,2.92
2022-10-05T08:07:09.812Z,4.78
2022-10-05T08:07:42.342Z,4.40
2022-10-05T08:08:25.944Z,4.20
2022-10-05T08:09:04.685Z,4.40
2022-10-05T08:09:45.539Z,4.78
2022-10-05T08:10:26.131Z,3.70
2022-10-05T08:11:05.688Z,3.15
2022-10-05T08:11:46.810Z,3.03
2022-10-05T08:12:33.958Z,3.25
2022-10-05T08:13:13.790Z,3.05
2022-10-05T08:13:54.677Z,4.72
2022-10-05T08:14:38.188Z,4.50
2022-10-05T08:15:18.126Z,3.80
2022-10-05T08:15:54.086Z,3.55
2022-10-05T08:16:31.035Z,3.45
2022-10-05T08:17:12.976Z,4.25
2022-10-05T08:17:53.476Z,3.45
2022-10-05T08:18:44.004Z,4.72
2022-10-05T08:20:03.934Z,3.55
2022-10-05T08:20:42.718Z,2.67
2022-10-05T08:21:21.566Z,3.63
2022-10-05T08:22:00.186Z,2.83
2022-10-05T08:22:47.081Z,4.50
2022-10-05T08:23:24.080Z,4.35
2022-10-05T08:24:04.201Z,4.00
2022-10-05T08:24:43.516Z,2.42
2022-10-05T08:25:24.780Z,4.25
2022-10-05T08:26:18.449Z,3.95
2022-10-05T08:26:56.246Z,5.85
2022-10-05T08:27:40.888Z,3.45
2022-10-05T08:28:18.861Z,3.90
2022-10-05T08:29:02.130Z,3.85
2022-10-05T08:29:41.115Z,3.08
2022-10-05T08:30:15.597Z,3.30
2022-10-05T08:31:02.176Z,5.93
2022-10-05T08:31:37.379Z,4.75
2022-10-05T08:32:21.009Z,4.18
2022-10-05T08:33:00.748Z,4.38
2022-10-05T08:33:46.037Z,3.58
2022-10-05T08:34:25.043Z,2.55
2022-10-05T08:35:07.140Z,3.88
2022-10-05T08:35:44.068Z,4.03
2022-10-05T08:36:25.571Z,3.75
2022-10-05T08:37:04.103Z,3.92
2022-10-05T08:37:45.380Z,3.90
2022-10-05T08:38:20.413Z,3.58
2022-10-05T08:38:55.598Z,4.45
2022-10-05T08:39:34.681Z,4.10
2022-10-05T08:40:45.309Z,2.78
2022-10-05T08:41:58.779Z,4.35
2022-10-05T08:42:51.549Z,3.88
2022-10-05T08:43:59.797Z,3.53
2022-10-05T08:45:01.972Z,4.20
2022-10-05T08:46:12.336Z,5.00
2022-10-05T08:47:10.572Z,3.90
2022-10-05T08:48:23.580Z,5.05
2022-10-05T08:49:38.869Z,4.00
2022-10-05T08:50:28.067Z,5.00
2022-10-05T08:51:23.561Z,4.43
2022-10-05T08:52:29.005Z,3.50
2022-10-05T08:53:29.030Z,5.30
2022-10-05T08:54:24.053Z,3.55
2022-10-05T08:55:37.461Z,2.72
2022-10-05T08:56:30.547Z,3.88
2022-10-05T08:57:26.891Z,3.80
2022-10-05T08:58:26.700Z,3.25
2022-10-05T08:59:24.158Z,3.72
2022-10-05T09:00:10.469Z,3.88
2022-10-05T09:00:56.902Z,4.03
2022-10-05T09:01:40.949Z,4.82
2022-10-05T09:02:37.709Z,5.60
2022-10-05T09:03:36.058Z,5.72
2022-10-05T09:04:28.360Z,6.55
2022-10-05T09:05:38.471Z,2.67
2022-10-05T09:06:30.838Z,3.42
2022-10-05T09:07:15.496Z,3.20
2022-10-05T09:08:27.426Z,3.60
2022-10-05T09:09:25.427Z,3.65
2022-10-05T09:10:37.097Z,3.55
2022-10-05T09:11:19.933Z,5.07
2022-10-05T09:12:17.135Z,4.63
2022-10-05T09:13:20.931Z,3.88
2022-10-05T09:14:17.137Z,5.38
2022-10-05T09:15:20.810Z,3.90
2022-10-05T09:16:20.369Z,2.90
2022-10-05T09:17:20.421Z,4.57
2022-10-05T09:18:29.347Z,5.63
2022-10-05T09:19:31.296Z,5.00
2022-10-05T09:20:32.591Z,5.80
2022-10-05T09:21:13.161Z,5.72
2022-10-05T09:22:00.260Z,4.20
2022-10-05T09:22:39.583Z,3.88
2022-10-05T09:23:16.791Z,5.65
2022-10-05T09:24:00.509Z,4.15
2022-10-05T09:24:55.602Z,4.78
2022-10-05T09:25:50.694Z,4.10
2022-10-05T09:26:45.999Z,2.92
2022-10-05T09:27:19.967Z,4.05
2022-10-05T09:27:59.181Z,3.83
2022-10-05T09:28:40.575Z,3.60
2022-10-05T09:29:55.936Z,4.68
2022-10-05T09:30:46.866Z,4.57
2022-10-05T09:31:41.049Z,3.90
2022-10-05T09:32:36.914Z,3.65
2022-10-05T09:33:36.516Z,6.75
2022-10-05T09:34:37.848Z,4.03
2022-10-05T09:35:42.001Z,3.88
2022-10-05T09:37:03.886Z,3.53
2022-10-05T09:38:00.270Z,3.35
2022-10-05T09:38:55.429Z,5.88
2022-10-05T09:39:51.624Z,3.92
2022-10-05T09:41:00.097Z,5.68
2022-10-05T09:41:53.085Z,5.60
2022-10-05T09:42:57.632Z,4.30
2022-10-05T09:44:12.079Z,2.67
2022-10-05T09:45:28.631Z,3.63
2022-10-05T09:46:39.311Z,4.55
2022-10-05T09:47:38.760Z,4.47
2022-10-05T09:48:56.586Z,3.10
2022-10-05T09:49:59.808Z,2.45
2022-10-05T09:51:00.625Z,3.33
2022-10-05T09:52:48.399Z,4.40
2022-10-05T09:54:01.418Z,4.20